createdAt,value
2018-06-24T00:01:38.190Z,15.60
2018-06-24T00:08:44.508Z,15.40
2018-06-24T00:12:17.763Z,15.40
2018-06-24T00:15:51.043Z,15.40
2018-06-24T00:19:24.298Z,15.40
2018-06-24T00:22:58.200Z,15.40
2018-06-24T00:26:31.464Z,15.40
2018-06-24T00:30:05.244Z,15.40
2018-06-24T00:33:38.504Z,15.40
2018-06-24T00:37:11.777Z,15.40
2018-06-24T00:40:45.062Z,15.40
2018-06-24T00:44:18.816Z,15.30
2018-06-24T00:51:25.088Z,15.30
2018-06-24T00:54:58.303Z,15.20
2018-06-24T00:58:31.559Z,15.10
2018-06-24T01:02:04.791Z,15.10
2018-06-24T01:05:38.094Z,15.00
2018-06-24T01:09:11.320Z,14.90
2018-06-24T01:16:17.543Z,14.70
2018-06-24T01:19:50.782Z,14.60
2018-06-24T01:23:24.011Z,14.50
2018-06-24T01:26:57.249Z,14.40
2018-06-24T01:30:30.483Z,14.30
2018-06-24T01:34:03.719Z,14.30
2018-06-24T01:37:36.988Z,14.20
2018-06-24T01:41:10.283Z,14.20
2018-06-24T01:44:43.529Z,14.20
2018-06-24T01:48:16.769Z,14.20
2018-06-24T01:51:50.005Z,14.30
2018-06-24T01:58:56.238Z,14.60
2018-06-24T02:02:29.474Z,14.60
2018-06-24T02:06:02.730Z,14.60
2018-06-24T02:09:35.992Z,14.70
2018-06-24T02:16:42.275Z,14.80
2018-06-24T02:20:15.496Z,14.80
2018-06-24T02:27:21.715Z,14.90
2018-06-24T02:30:54.989Z,15.00
2018-06-24T02:34:28.275Z,15.00
2018-06-24T02:38:02.505Z,15.10
2018-06-24T02:41:35.742Z,15.20
2018-06-24T02:45:09.015Z,15.20
2018-06-24T02:48:42.676Z,15.20
2018-06-24T02:52:15.927Z,15.20
2018-06-24T02:59:22.176Z,15.10
2018-06-24T03:02:55.440Z,15.10
2018-06-24T03:06:28.723Z,15.10
2018-06-24T03:10:01.973Z,15.00
2018-06-24T03:13:35.208Z,15.00
2018-06-24T03:20:42.016Z,15.00
2018-06-24T03:24:15.251Z,15.00
2018-06-24T03:27:48.609Z,15.00
2018-06-24T03:31:21.859Z,15.00
2018-06-24T03:34:55.096Z,15.00
2018-06-24T03:38:28.544Z,15.00
2018-06-24T03:42:01.782Z,15.00
2018-06-24T03:45:35.267Z,14.90
2018-06-24T03:49:08.517Z,14.90
2018-06-24T03:52:41.760Z,14.80
2018-06-24T03:56:15.047Z,14.80
2018-06-24T03:59:48.305Z,14.80
2018-06-24T04:03:21.560Z,14.80
2018-06-24T04:06:54.813Z,14.80
2018-06-24T04:10:28.167Z,14.90
2018-06-24T04:14:01.422Z,14.80
2018-06-24T04:17:34.671Z,14.80
2018-06-24T04:21:08.244Z,14.90
2018-06-24T04:24:41.608Z,14.90
2018-06-24T04:28:14.916Z,15.00
2018-06-24T04:31:48.150Z,15.00
2018-06-24T04:35:21.419Z,15.00
2018-06-24T04:38:54.671Z,15.00
2018-06-24T04:42:27.993Z,15.00
2018-06-24T04:46:01.500Z,15.00
2018-06-24T04:49:34.779Z,15.10
2018-06-24T04:53:08.018Z,15.30
2018-06-24T04:56:41.239Z,15.40
2018-06-24T05:00:14.505Z,15.60
2018-06-24T05:03:47.748Z,15.60
2018-06-24T05:07:20.990Z,15.50
2018-06-24T05:14:27.321Z,15.50
2018-06-24T05:18:00.554Z,15.50
2018-06-24T05:21:33.817Z,15.50
2018-06-24T05:25:07.268Z,15.50
2018-06-24T05:28:40.583Z,15.60
2018-06-24T05:32:13.915Z,15.60
2018-06-24T05:35:47.209Z,15.70
2018-06-24T05:39:20.451Z,15.80
2018-06-24T05:46:26.893Z,15.90
2018-06-24T05:50:00.131Z,16.00
2018-06-24T05:53:33.362Z,16.10
2018-06-24T05:57:06.595Z,16.20
2018-06-24T06:00:39.866Z,16.30
2018-06-24T06:04:13.113Z,16.40
2018-06-24T06:07:46.324Z,16.60
2018-06-24T06:11:19.563Z,16.80
2018-06-24T06:14:52.828Z,16.90
2018-06-24T06:18:26.060Z,16.90
2018-06-24T06:21:59.476Z,16.90
2018-06-24T06:25:32.829Z,17.00
2018-06-24T06:29:06.062Z,17.10
2018-06-24T06:32:39.307Z,17.30
2018-06-24T06:36:12.693Z,17.40
2018-06-24T06:39:46.020Z,17.50
2018-06-24T06:43:19.270Z,17.50
2018-06-24T06:46:52.511Z,17.60
2018-06-24T06:50:26.103Z,17.70
2018-06-24T06:53:59.455Z,17.80
2018-06-24T06:57:32.984Z,17.80
2018-06-24T07:01:06.232Z,17.80
2018-06-24T07:04:39.565Z,17.80
2018-06-24T07:08:13.022Z,17.90
2018-06-24T07:11:46.291Z,18.00
2018-06-24T07:15:19.884Z,18.10
2018-06-24T07:26:00.097Z,18.50
2018-06-24T07:33:06.458Z,18.80
2018-06-24T07:36:39.728Z,19.00
2018-06-24T07:40:12.972Z,19.10
2018-06-24T07:43:46.407Z,19.10
2018-06-24T07:47:19.936Z,19.20
2018-06-24T07:50:53.182Z,19.30
2018-06-24T07:54:26.613Z,19.50
2018-06-24T08:01:33.033Z,19.50
2018-06-24T08:05:06.728Z,19.40
2018-06-24T08:08:40.024Z,19.20
2018-06-24T08:12:13.272Z,19.10
2018-06-24T08:15:46.591Z,19.00
2018-06-24T08:19:19.953Z,19.00
2018-06-24T08:22:53.923Z,18.90
2018-06-24T08:26:27.228Z,19.10
2018-06-24T08:33:33.564Z,19.80
2018-06-24T08:37:06.887Z,20.20
2018-06-24T08:40:40.208Z,20.50
2018-06-24T08:44:13.473Z,20.70
2018-06-24T08:47:46.764Z,20.90
2018-06-24T08:51:20.041Z,21.00
2018-06-24T08:58:26.357Z,21.10
2018-06-24T09:01:59.674Z,21.10
2018-06-24T09:05:32.964Z,20.80
2018-06-24T09:09:08.720Z,20.70
2018-06-24T09:12:41.976Z,20.60
2018-06-24T09:16:15.652Z,20.50
2018-06-24T09:19:48.947Z,20.30
2018-06-24T09:23:22.280Z,20.10
2018-06-24T09:26:55.557Z,19.90
2018-06-24T09:30:28.857Z,19.90
2018-06-24T09:34:02.197Z,19.90
2018-06-24T09:37:35.525Z,19.80
2018-06-24T09:41:08.761Z,19.70
2018-06-24T09:44:42.080Z,19.70
2018-06-24T09:48:15.398Z,19.70
2018-06-24T09:51:48.688Z,19.90
2018-06-24T09:55:22.011Z,20.00
2018-06-24T09:58:55.361Z,20.20
2018-06-24T10:02:28.636Z,20.50
2018-06-24T10:06:01.865Z,20.90
2018-06-24T10:09:35.188Z,21.20
2018-06-24T10:13:08.451Z,21.30
2018-06-24T10:16:41.733Z,21.40
2018-06-24T10:20:15.064Z,21.50
2018-06-24T10:23:48.357Z,21.80
2018-06-24T10:27:21.680Z,22.10
2018-06-24T10:30:54.940Z,22.40
2018-06-24T10:34:28.195Z,22.70
2018-06-24T10:38:01.552Z,22.80
2018-06-24T10:41:34.906Z,22.90
2018-06-24T10:45:08.177Z,22.90
2018-06-24T10:48:45.899Z,23.00
2018-06-24T10:52:19.372Z,23.10
2018-06-24T10:55:53.094Z,23.00
2018-06-24T10:59:26.563Z,22.90
2018-06-24T11:03:00.027Z,22.90
2018-06-24T11:06:33.735Z,22.90
2018-06-24T11:10:06.968Z,22.90
2018-06-24T11:17:13.250Z,23.30
2018-06-24T11:20:46.557Z,23.30
2018-06-24T11:24:19.815Z,23.20
2018-06-24T11:27:53.075Z,22.90
2018-06-24T11:31:26.386Z,22.60
2018-06-24T11:34:59.712Z,22.40
2018-06-24T11:38:33.108Z,22.00
2018-06-24T11:42:06.464Z,21.90
2018-06-24T11:45:39.732Z,21.90
2018-06-24T11:49:13.236Z,21.90
2018-06-24T11:52:46.540Z,21.90
2018-06-24T11:56:19.840Z,21.70
2018-06-24T11:59:53.232Z,21.90
2018-06-24T12:03:26.669Z,22.00
2018-06-24T12:07:00.030Z,22.20
2018-06-24T12:10:33.452Z,22.40
2018-06-24T12:14:06.729Z,22.50
2018-06-24T12:17:40.593Z,22.50
2018-06-24T12:21:13.925Z,22.40
2018-06-24T12:24:47.199Z,22.60
2018-06-24T12:28:20.591Z,22.70
2018-06-24T12:31:54.903Z,22.90
2018-06-24T12:35:28.656Z,23.10
2018-06-24T12:39:02.298Z,23.40
2018-06-24T12:42:35.599Z,23.50
2018-06-24T12:46:08.926Z,23.20
2018-06-24T12:49:42.215Z,23.00
2018-06-24T12:53:15.515Z,22.90
2018-06-24T12:56:48.815Z,22.90
2018-06-24T13:00:22.861Z,22.90
2018-06-24T13:03:56.353Z,22.90
2018-06-24T13:07:29.716Z,22.80
2018-06-24T13:11:03.004Z,22.80
2018-06-24T13:14:36.401Z,22.90
2018-06-24T13:18:09.676Z,22.90
2018-06-24T13:21:42.936Z,23.10
2018-06-24T13:25:16.199Z,23.30
2018-06-24T13:28:49.480Z,23.50
2018-06-24T13:32:22.737Z,23.80
2018-06-24T13:35:56.053Z,24.20
2018-06-24T13:39:29.349Z,24.40
2018-06-24T13:43:02.670Z,24.40
2018-06-24T13:46:36.231Z,24.10
2018-06-24T13:50:09.650Z,23.70
2018-06-24T13:53:42.932Z,23.60
2018-06-24T13:57:16.267Z,23.60
2018-06-24T14:00:49.639Z,23.50
2018-06-24T14:04:22.976Z,23.70
2018-06-24T14:07:56.324Z,23.90
2018-06-24T14:11:30.113Z,24.00
2018-06-24T14:15:04.152Z,23.90
2018-06-24T14:18:37.433Z,24.00
2018-06-24T14:22:10.701Z,24.10
2018-06-24T14:25:43.966Z,24.20
2018-06-24T14:29:17.319Z,24.20
2018-06-24T14:32:50.621Z,24.30
2018-06-24T14:36:24.857Z,24.30
2018-06-24T14:39:58.696Z,24.30
2018-06-24T14:43:31.981Z,24.50
2018-06-24T14:47:05.236Z,25.00
2018-06-24T14:50:38.532Z,25.20
2018-06-24T14:54:11.906Z,25.20
2018-06-24T14:57:45.199Z,25.40
2018-06-24T15:01:18.523Z,25.30
2018-06-24T15:04:51.796Z,25.20
2018-06-24T15:08:25.151Z,25.60
2018-06-24T15:11:58.560Z,25.60
2018-06-24T15:15:31.942Z,25.10
2018-06-24T15:19:05.651Z,24.60
2018-06-24T15:22:38.938Z,24.20
2018-06-24T15:26:12.196Z,24.10
2018-06-24T15:29:45.635Z,24.50
2018-06-24T15:33:18.880Z,25.10
2018-06-24T15:36:52.211Z,25.60
2018-06-24T15:40:25.439Z,25.70
2018-06-24T15:43:58.690Z,25.70
2018-06-24T15:47:31.991Z,25.40
2018-06-24T15:51:05.340Z,25.10
2018-06-24T15:54:38.576Z,24.70
2018-06-24T15:58:12.010Z,24.20
2018-06-24T16:05:18.511Z,23.70
2018-06-24T16:08:51.831Z,23.30
2018-06-24T16:12:25.074Z,23.20
2018-06-24T16:15:58.382Z,23.00
2018-06-24T16:19:31.681Z,23.00
2018-06-24T16:23:05.885Z,22.90
2018-06-24T16:26:39.426Z,22.80
2018-06-24T16:30:12.668Z,22.80
2018-06-24T16:33:45.996Z,22.60
2018-06-24T16:37:19.314Z,22.50
2018-06-24T16:40:52.551Z,22.40
2018-06-24T16:48:00.084Z,22.30
2018-06-24T16:51:33.333Z,22.30
2018-06-24T16:55:06.697Z,22.20
2018-06-24T16:58:40.399Z,22.10
2018-06-24T17:05:46.397Z,22.00
2018-06-24T17:09:19.735Z,22.00
2018-06-24T17:12:53.000Z,21.90
2018-06-24T17:16:26.320Z,21.90
2018-06-24T17:19:59.615Z,21.90
2018-06-24T17:23:32.856Z,21.90
2018-06-24T17:27:06.811Z,21.80
2018-06-24T17:34:13.040Z,21.80
2018-06-24T17:37:46.895Z,21.70
2018-06-24T17:41:20.160Z,21.70
2018-06-24T17:44:53.468Z,21.60
2018-06-24T17:48:26.725Z,21.60
2018-06-24T17:52:00.019Z,21.60
2018-06-24T17:59:06.335Z,21.40
2018-06-24T18:02:39.652Z,21.30
2018-06-24T18:06:13.413Z,21.30
2018-06-24T18:09:46.736Z,21.20
2018-06-24T18:16:54.516Z,21.10
2018-06-24T18:20:27.928Z,21.00
2018-06-24T18:24:01.244Z,21.00
2018-06-24T18:27:34.455Z,21.00
2018-06-24T18:31:07.754Z,20.90
2018-06-24T18:34:41.010Z,20.80
2018-06-24T18:38:14.281Z,20.70
2018-06-24T18:41:47.612Z,20.70
2018-06-24T18:45:20.975Z,20.60
2018-06-24T18:48:54.252Z,20.50
2018-06-24T18:56:00.791Z,20.40
2018-06-24T18:59:34.603Z,20.40
2018-06-24T19:03:07.885Z,20.40
2018-06-24T19:10:14.211Z,20.30
2018-06-24T19:13:47.459Z,20.20
2018-06-24T19:17:20.840Z,20.20
2018-06-24T19:20:54.120Z,20.10
2018-06-24T19:24:28.108Z,20.10
2018-06-24T19:28:01.413Z,20.10
2018-06-24T19:31:34.707Z,20.10
2018-06-24T19:35:07.984Z,20.00
2018-06-24T19:38:41.229Z,19.90
2018-06-24T19:42:14.976Z,19.80
2018-06-24T19:45:48.225Z,19.70
2018-06-24T19:49:21.542Z,19.70
2018-06-24T19:52:54.972Z,19.60
2018-06-24T19:56:28.308Z,19.70
2018-06-24T20:00:01.773Z,19.70
2018-06-24T20:03:35.415Z,19.60
2018-06-24T20:07:09.492Z,19.60
2018-06-24T20:10:42.767Z,19.60
2018-06-24T20:14:16.336Z,19.50
2018-06-24T20:17:50.048Z,19.40
2018-06-24T20:21:23.467Z,19.40
2018-06-24T20:24:56.723Z,19.30
2018-06-24T20:28:30.047Z,19.30
2018-06-24T20:32:03.351Z,19.30
2018-06-24T20:35:36.645Z,19.30
2018-06-24T20:39:10.212Z,19.20
2018-06-24T20:42:43.875Z,19.10
2018-06-24T20:46:17.160Z,19.20
2018-06-24T20:49:50.608Z,19.10
2018-06-24T20:53:24.090Z,19.00
2018-06-24T20:56:57.461Z,18.90
2018-06-24T21:00:30.748Z,18.70
2018-06-24T21:04:04.383Z,18.60
2018-06-24T21:07:37.619Z,18.50
2018-06-24T21:14:43.895Z,18.40
2018-06-24T21:18:17.191Z,18.40
2018-06-24T21:21:50.449Z,18.30
2018-06-24T21:25:23.715Z,18.30
2018-06-24T21:28:57.327Z,18.40
2018-06-24T21:32:31.236Z,18.40
2018-06-24T21:36:04.572Z,18.30
2018-06-24T21:39:37.858Z,18.30
2018-06-24T21:43:11.240Z,18.30
2018-06-24T21:46:44.568Z,18.30
2018-06-24T21:50:17.806Z,18.20
2018-06-24T21:53:51.063Z,18.20
2018-06-24T21:57:24.385Z,18.30
2018-06-24T22:00:57.625Z,18.20
2018-06-24T22:04:30.866Z,18.30
2018-06-24T22:08:04.148Z,18.30
2018-06-24T22:15:10.704Z,18.20
2018-06-24T22:18:43.940Z,18.20
2018-06-24T22:29:23.152Z,18.20
2018-06-24T22:32:56.408Z,18.10
2018-06-24T22:36:29.720Z,18.00
2018-06-24T22:40:02.960Z,18.00
2018-06-24T22:43:36.251Z,18.00
2018-06-24T22:47:09.500Z,18.00
2018-06-24T22:50:42.750Z,17.90
2018-06-24T22:54:16.019Z,18.00
2018-06-24T22:57:49.273Z,17.90
2018-06-24T23:01:22.990Z,17.80
2018-06-24T23:04:56.287Z,17.70
2018-06-24T23:08:29.536Z,17.70
2018-06-24T23:12:02.858Z,17.70
2018-06-24T23:15:36.087Z,17.60
2018-06-24T23:19:09.347Z,17.60
2018-06-24T23:22:42.575Z,17.60
2018-06-24T23:26:15.824Z,17.60
2018-06-24T23:29:49.474Z,17.60
2018-06-24T23:33:22.742Z,17.50
2018-06-24T23:40:28.972Z,17.50
2018-06-24T23:44:02.259Z,17.40
2018-06-24T23:47:35.764Z,17.30
2018-06-24T23:51:09.115Z,17.30
2018-06-24T23:54:42.390Z,17.30
2018-06-24T23:58:15.632Z,17.30
